sensor_id;sensor_type;location;lat;lon;timestamp;temperature;humidity
69382;DHT22;56560;50.692;12.844;2023-05-07T00:01:49;10.60;79.60
69382;DHT22;56560;50.692;12.844;2023-05-07T00:04:14;10.60;80.00
69382;DHT22;56560;50.692;12.844;2023-05-07T00:06:40;10.60;80.10
69382;DHT22;56560;50.692;12.844;2023-05-07T00:09:06;10.50;80.10
69382;DHT22;56560;50.692;12.844;2023-05-07T00:11:33;10.50;80.20
69382;DHT22;56560;50.692;12.844;2023-05-07T00:13:59;10.40;80.30
69382;DHT22;56560;50.692;12.844;2023-05-07T00:16:25;10.40;81.00
69382;DHT22;56560;50.692;12.844;2023-05-07T00:18:51;10.30;81.10
69382;DHT22;56560;50.692;12.844;2023-05-07T00:21:16;10.20;81.30
69382;DHT22;56560;50.692;12.844;2023-05-07T00:23:42;10.20;81.10
69382;DHT22;56560;50.692;12.844;2023-05-07T00:26:07;10.10;81.40
69382;DHT22;56560;50.692;12.844;2023-05-07T00:28:33;10.00;81.70
69382;DHT22;56560;50.692;12.844;2023-05-07T00:30:59;10.00;81.60
69382;DHT22;56560;50.692;12.844;2023-05-07T00:33:29;10.00;81.80
69382;DHT22;56560;50.692;12.844;2023-05-07T00:35:55;9.90;82.10
69382;DHT22;56560;50.692;12.844;2023-05-07T00:38:21;9.90;82.30
69382;DHT22;56560;50.692;12.844;2023-05-07T00:40:46;9.90;82.20
69382;DHT22;56560;50.692;12.844;2023-05-07T00:43:12;9.80;82.30
69382;DHT22;56560;50.692;12.844;2023-05-07T00:45:38;9.80;82.60
69382;DHT22;56560;50.692;12.844;2023-05-07T00:48:04;9.80;82.50
69382;DHT22;56560;50.692;12.844;2023-05-07T00:50:31;9.90;82.60
69382;DHT22;56560;50.692;12.844;2023-05-07T00:52:58;9.90;82.50
69382;DHT22;56560;50.692;12.844;2023-05-07T00:55:24;9.80;82.50
69382;DHT22;56560;50.692;12.844;2023-05-07T00:57:51;9.80;82.40
69382;DHT22;56560;50.692;12.844;2023-05-07T01:00:17;9.80;82.70
69382;DHT22;56560;50.692;12.844;2023-05-07T01:02:43;9.80;82.80
69382;DHT22;56560;50.692;12.844;2023-05-07T01:05:11;9.70;83.00
69382;DHT22;56560;50.692;12.844;2023-05-07T01:07:39;9.70;83.30
69382;DHT22;56560;50.692;12.844;2023-05-07T01:10:06;9.70;83.20
69382;DHT22;56560;50.692;12.844;2023-05-07T01:12:33;9.70;83.10
69382;DHT22;56560;50.692;12.844;2023-05-07T01:14:59;9.70;83.20
69382;DHT22;56560;50.692;12.844;2023-05-07T01:17:26;9.80;83.30
69382;DHT22;56560;50.692;12.844;2023-05-07T01:19:51;9.80;83.10
69382;DHT22;56560;50.692;12.844;2023-05-07T01:22:39;9.90;82.90
69382;DHT22;56560;50.692;12.844;2023-05-07T01:25:06;10.00;82.50
69382;DHT22;56560;50.692;12.844;2023-05-07T01:27:32;10.10;82.40
69382;DHT22;56560;50.692;12.844;2023-05-07T01:30:03;10.20;82.40
69382;DHT22;56560;50.692;12.844;2023-05-07T01:35:26;10.40;82.00
69382;DHT22;56560;50.692;12.844;2023-05-07T01:37:53;10.40;81.90
69382;DHT22;56560;50.692;12.844;2023-05-07T01:40:20;10.50;82.10
69382;DHT22;56560;50.692;12.844;2023-05-07T01:42:46;10.50;82.00
69382;DHT22;56560;50.692;12.844;2023-05-07T01:45:13;10.50;81.20
69382;DHT22;56560;50.692;12.844;2023-05-07T01:47:39;10.50;81.30
69382;DHT22;56560;50.692;12.844;2023-05-07T01:50:06;10.50;81.50
69382;DHT22;56560;50.692;12.844;2023-05-07T01:52:34;10.40;81.20
69382;DHT22;56560;50.692;12.844;2023-05-07T01:55:00;10.50;81.60
69382;DHT22;56560;50.692;12.844;2023-05-07T01:57:25;10.50;81.20
69382;DHT22;56560;50.692;12.844;2023-05-07T01:59:51;10.60;80.90
69382;DHT22;56560;50.692;12.844;2023-05-07T02:02:16;10.70;80.30
69382;DHT22;56560;50.692;12.844;2023-05-07T02:04:42;10.70;80.30
69382;DHT22;56560;50.692;12.844;2023-05-07T02:07:07;10.70;80.20
69382;DHT22;56560;50.692;12.844;2023-05-07T02:09:33;10.70;80.20
69382;DHT22;56560;50.692;12.844;2023-05-07T02:11:59;10.70;79.80
69382;DHT22;56560;50.692;12.844;2023-05-07T02:14:25;10.60;80.40
69382;DHT22;56560;50.692;12.844;2023-05-07T02:16:51;10.60;80.10
69382;DHT22;56560;50.692;12.844;2023-05-07T02:19:17;10.60;79.90
69382;DHT22;56560;50.692;12.844;2023-05-07T02:21:43;10.60;80.00
69382;DHT22;56560;50.692;12.844;2023-05-07T02:24:09;10.60;80.00
69382;DHT22;56560;50.692;12.844;2023-05-07T02:26:34;10.60;79.90
69382;DHT22;56560;50.692;12.844;2023-05-07T02:29:00;10.60;80.10
69382;DHT22;56560;50.692;12.844;2023-05-07T02:31:26;10.60;80.00
69382;DHT22;56560;50.692;12.844;2023-05-07T02:33:51;10.60;79.90
69382;DHT22;56560;50.692;12.844;2023-05-07T02:36:17;10.70;79.40
69382;DHT22;56560;50.692;12.844;2023-05-07T02:38:42;10.60;79.80
69382;DHT22;56560;50.692;12.844;2023-05-07T02:41:08;10.60;79.90
69382;DHT22;56560;50.692;12.844;2023-05-07T02:43:34;10.60;80.20
69382;DHT22;56560;50.692;12.844;2023-05-07T02:48:28;10.60;80.00
69382;DHT22;56560;50.692;12.844;2023-05-07T02:50:54;10.50;80.10
69382;DHT22;56560;50.692;12.844;2023-05-07T02:53:19;10.60;80.40
69382;DHT22;56560;50.692;12.844;2023-05-07T02:55:45;10.60;80.20
69382;DHT22;56560;50.692;12.844;2023-05-07T02:58:11;10.60;80.00
69382;DHT22;56560;50.692;12.844;2023-05-07T03:00:36;10.60;79.60
69382;DHT22;56560;50.692;12.844;2023-05-07T03:03:02;10.60;79.50
69382;DHT22;56560;50.692;12.844;2023-05-07T03:05:28;10.50;79.30
69382;DHT22;56560;50.692;12.844;2023-05-07T03:07:53;10.40;79.90
69382;DHT22;56560;50.692;12.844;2023-05-07T03:10:19;10.30;80.30
69382;DHT22;56560;50.692;12.844;2023-05-07T03:12:45;10.20;80.90
69382;DHT22;56560;50.692;12.844;2023-05-07T03:15:10;10.30;81.40
69382;DHT22;56560;50.692;12.844;2023-05-07T03:17:38;10.30;81.10
69382;DHT22;56560;50.692;12.844;2023-05-07T03:20:04;10.40;80.80
69382;DHT22;56560;50.692;12.844;2023-05-07T03:22:30;10.40;80.40
69382;DHT22;56560;50.692;12.844;2023-05-07T03:24:55;10.40;81.10
69382;DHT22;56560;50.692;12.844;2023-05-07T03:27:21;10.30;80.40
69382;DHT22;56560;50.692;12.844;2023-05-07T03:29:46;10.40;80.70
69382;DHT22;56560;50.692;12.844;2023-05-07T03:32:12;10.40;81.00
69382;DHT22;56560;50.692;12.844;2023-05-07T03:34:38;10.40;80.30
69382;DHT22;56560;50.692;12.844;2023-05-07T03:37:03;10.40;81.00
69382;DHT22;56560;50.692;12.844;2023-05-07T03:39:29;10.40;80.30
69382;DHT22;56560;50.692;12.844;2023-05-07T03:41:55;10.40;80.00
69382;DHT22;56560;50.692;12.844;2023-05-07T03:44:21;10.30;80.20
69382;DHT22;56560;50.692;12.844;2023-05-07T03:46:47;10.30;80.70
69382;DHT22;56560;50.692;12.844;2023-05-07T03:49:12;10.30;80.60
69382;DHT22;56560;50.692;12.844;2023-05-07T03:51:38;10.30;80.50
69382;DHT22;56560;50.692;12.844;2023-05-07T03:54:03;10.30;80.70
69382;DHT22;56560;50.692;12.844;2023-05-07T03:56:30;10.40;80.40
69382;DHT22;56560;50.692;12.844;2023-05-07T03:58:56;10.40;79.70
69382;DHT22;56560;50.692;12.844;2023-05-07T04:01:22;10.40;80.30
69382;DHT22;56560;50.692;12.844;2023-05-07T04:03:47;10.40;79.80
69382;DHT22;56560;50.692;12.844;2023-05-07T04:06:16;10.50;79.90
69382;DHT22;56560;50.692;12.844;2023-05-07T04:08:42;10.40;80.00
69382;DHT22;56560;50.692;12.844;2023-05-07T04:11:08;10.40;79.80
69382;DHT22;56560;50.692;12.844;2023-05-07T04:13:34;10.40;79.30
69382;DHT22;56560;50.692;12.844;2023-05-07T04:16:02;10.40;79.70
69382;DHT22;56560;50.692;12.844;2023-05-07T04:18:28;10.40;79.30
69382;DHT22;56560;50.692;12.844;2023-05-07T04:20:53;10.40;79.80
69382;DHT22;56560;50.692;12.844;2023-05-07T04:23:19;10.50;79.90
69382;DHT22;56560;50.692;12.844;2023-05-07T04:25:45;10.60;79.20
69382;DHT22;56560;50.692;12.844;2023-05-07T04:28:11;10.70;78.50
69382;DHT22;56560;50.692;12.844;2023-05-07T04:30:38;10.90;78.10
69382;DHT22;56560;50.692;12.844;2023-05-07T04:33:03;10.90;75.90
69382;DHT22;56560;50.692;12.844;2023-05-07T04:35:29;10.70;76.00
69382;DHT22;56560;50.692;12.844;2023-05-07T04:37:55;10.60;76.90
69382;DHT22;56560;50.692;12.844;2023-05-07T04:40:20;10.60;76.80
69382;DHT22;56560;50.692;12.844;2023-05-07T04:42:46;10.70;77.80
69382;DHT22;56560;50.692;12.844;2023-05-07T04:45:12;10.80;76.90
69382;DHT22;56560;50.692;12.844;2023-05-07T04:47:38;10.90;77.10
69382;DHT22;56560;50.692;12.844;2023-05-07T04:50:05;11.00;76.60
69382;DHT22;56560;50.692;12.844;2023-05-07T04:52:31;11.10;76.00
69382;DHT22;56560;50.692;12.844;2023-05-07T04:54:59;11.00;74.70
69382;DHT22;56560;50.692;12.844;2023-05-07T04:57:25;10.90;75.40
69382;DHT22;56560;50.692;12.844;2023-05-07T04:59:52;11.00;75.90
69382;DHT22;56560;50.692;12.844;2023-05-07T05:02:17;11.10;75.20
69382;DHT22;56560;50.692;12.844;2023-05-07T05:04:43;11.30;73.70
69382;DHT22;56560;50.692;12.844;2023-05-07T05:07:08;11.30;73.30
69382;DHT22;56560;50.692;12.844;2023-05-07T05:09:34;11.40;73.10
69382;DHT22;56560;50.692;12.844;2023-05-07T05:12:00;11.50;72.60
69382;DHT22;56560;50.692;12.844;2023-05-07T05:14:25;11.60;72.20
69382;DHT22;56560;50.692;12.844;2023-05-07T05:16:51;11.90;71.70
69382;DHT22;56560;50.692;12.844;2023-05-07T05:19:16;11.90;71.60
69382;DHT22;56560;50.692;12.844;2023-05-07T05:21:42;12.00;71.40
69382;DHT22;56560;50.692;12.844;2023-05-07T05:24:08;12.00;70.50
69382;DHT22;56560;50.692;12.844;2023-05-07T05:26:34;12.00;71.20
69382;DHT22;56560;50.692;12.844;2023-05-07T05:29:00;12.20;70.40
69382;DHT22;56560;50.692;12.844;2023-05-07T05:31:26;12.50;70.00
69382;DHT22;56560;50.692;12.844;2023-05-07T05:33:51;12.70;68.80
69382;DHT22;56560;50.692;12.844;2023-05-07T05:36:17;12.70;68.60
69382;DHT22;56560;50.692;12.844;2023-05-07T05:38:43;12.80;67.30
69382;DHT22;56560;50.692;12.844;2023-05-07T05:41:09;12.80;67.70
69382;DHT22;56560;50.692;12.844;2023-05-07T05:43:35;12.90;67.70
69382;DHT22;56560;50.692;12.844;2023-05-07T05:46:01;12.80;67.20
69382;DHT22;56560;50.692;12.844;2023-05-07T05:48:26;12.90;66.70
69382;DHT22;56560;50.692;12.844;2023-05-07T05:50:52;12.90;66.80
69382;DHT22;56560;50.692;12.844;2023-05-07T05:53:18;12.90;67.20
69382;DHT22;56560;50.692;12.844;2023-05-07T05:55:46;13.00;66.70
69382;DHT22;56560;50.692;12.844;2023-05-07T05:58:12;12.90;66.20
69382;DHT22;56560;50.692;12.844;2023-05-07T06:00:37;12.60;66.60
69382;DHT22;56560;50.692;12.844;2023-05-07T06:03:03;12.60;67.40
69382;DHT22;56560;50.692;12.844;2023-05-07T06:05:29;12.40;67.60
69382;DHT22;56560;50.692;12.844;2023-05-07T06:07:54;12.50;68.20
69382;DHT22;56560;50.692;12.844;2023-05-07T06:10:20;12.80;67.30
69382;DHT22;56560;50.692;12.844;2023-05-07T06:12:46;12.90;66.60
69382;DHT22;56560;50.692;12.844;2023-05-07T06:15:11;13.00;66.50
69382;DHT22;56560;50.692;12.844;2023-05-07T06:17:40;13.00;66.80
69382;DHT22;56560;50.692;12.844;2023-05-07T06:20:06;13.00;66.40
69382;DHT22;56560;50.692;12.844;2023-05-07T06:22:31;12.80;67.00
69382;DHT22;56560;50.692;12.844;2023-05-07T06:24:57;12.90;66.90
69382;DHT22;56560;50.692;12.844;2023-05-07T06:27:26;13.00;67.00
69382;DHT22;56560;50.692;12.844;2023-05-07T06:29:53;13.10;66.50
69382;DHT22;56560;50.692;12.844;2023-05-07T06:32:19;13.20;66.50
69382;DHT22;56560;50.692;12.844;2023-05-07T06:34:44;13.30;66.10
69382;DHT22;56560;50.692;12.844;2023-05-07T06:37:10;13.30;65.70
69382;DHT22;56560;50.692;12.844;2023-05-07T06:39:36;13.30;65.50
69382;DHT22;56560;50.692;12.844;2023-05-07T06:42:02;13.40;66.00
69382;DHT22;56560;50.692;12.844;2023-05-07T06:44:28;13.40;65.60
69382;DHT22;56560;50.692;12.844;2023-05-07T06:46:53;13.20;66.00
69382;DHT22;56560;50.692;12.844;2023-05-07T06:49:19;13.30;66.80
69382;DHT22;56560;50.692;12.844;2023-05-07T06:51:45;13.10;66.40
69382;DHT22;56560;50.692;12.844;2023-05-07T06:54:10;13.00;66.60
69382;DHT22;56560;50.692;12.844;2023-05-07T06:56:36;12.90;66.80
69382;DHT22;56560;50.692;12.844;2023-05-07T06:59:02;12.80;67.40
69382;DHT22;56560;50.692;12.844;2023-05-07T07:01:28;12.80;67.00
69382;DHT22;56560;50.692;12.844;2023-05-07T07:03:54;12.80;66.90
69382;DHT22;56560;50.692;12.844;2023-05-07T07:06:22;13.10;66.70
69382;DHT22;56560;50.692;12.844;2023-05-07T07:08:48;13.40;65.30
69382;DHT22;56560;50.692;12.844;2023-05-07T07:11:14;13.50;65.30
69382;DHT22;56560;50.692;12.844;2023-05-07T07:13:40;13.60;64.60
69382;DHT22;56560;50.692;12.844;2023-05-07T07:16:05;13.70;63.70
69382;DHT22;56560;50.692;12.844;2023-05-07T07:18:31;13.60;64.80
69382;DHT22;56560;50.692;12.844;2023-05-07T07:20:57;13.40;64.60
69382;DHT22;56560;50.692;12.844;2023-05-07T07:23:23;13.10;65.90
69382;DHT22;56560;50.692;12.844;2023-05-07T07:25:48;13.10;66.00
69382;DHT22;56560;50.692;12.844;2023-05-07T07:28:14;13.20;65.50
69382;DHT22;56560;50.692;12.844;2023-05-07T07:30:39;13.30;64.90
69382;DHT22;56560;50.692;12.844;2023-05-07T07:33:05;13.10;65.00
69382;DHT22;56560;50.692;12.844;2023-05-07T07:35:33;13.20;65.60
69382;DHT22;56560;50.692;12.844;2023-05-07T07:37:59;13.30;65.00
69382;DHT22;56560;50.692;12.844;2023-05-07T07:40:25;13.20;64.90
69382;DHT22;56560;50.692;12.844;2023-05-07T07:42:52;13.20;65.20
69382;DHT22;56560;50.692;12.844;2023-05-07T07:45:18;13.30;64.40
69382;DHT22;56560;50.692;12.844;2023-05-07T07:47:43;13.10;65.40
69382;DHT22;56560;50.692;12.844;2023-05-07T07:50:09;13.10;65.80
69382;DHT22;56560;50.692;12.844;2023-05-07T07:52:35;13.20;65.00
69382;DHT22;56560;50.692;12.844;2023-05-07T07:55:01;13.20;65.10
69382;DHT22;56560;50.692;12.844;2023-05-07T07:57:27;13.20;65.10
69382;DHT22;56560;50.692;12.844;2023-05-07T07:59:52;13.30;65.20
69382;DHT22;56560;50.692;12.844;2023-05-07T08:02:18;13.50;64.40
69382;DHT22;56560;50.692;12.844;2023-05-07T08:04:44;13.60;64.10
69382;DHT22;56560;50.692;12.844;2023-05-07T08:07:10;13.70;63.50
69382;DHT22;56560;50.692;12.844;2023-05-07T08:09:37;13.80;63.20
69382;DHT22;56560;50.692;12.844;2023-05-07T08:12:03;14.10;63.20
69382;DHT22;56560;50.692;12.844;2023-05-07T08:14:29;14.40;62.30
69382;DHT22;56560;50.692;12.844;2023-05-07T08:16:55;14.70;60.70
69382;DHT22;56560;50.692;12.844;2023-05-07T08:19:20;14.60;60.70
69382;DHT22;56560;50.692;12.844;2023-05-07T08:21:47;14.80;60.40
69382;DHT22;56560;50.692;12.844;2023-05-07T08:24:14;15.00;59.80
69382;DHT22;56560;50.692;12.844;2023-05-07T08:26:40;15.10;59.30
69382;DHT22;56560;50.692;12.844;2023-05-07T08:29:05;15.30;59.10
69382;DHT22;56560;50.692;12.844;2023-05-07T08:31:31;15.60;59.10
69382;DHT22;56560;50.692;12.844;2023-05-07T08:33:58;15.90;57.30
69382;DHT22;56560;50.692;12.844;2023-05-07T08:36:24;16.10;56.50
69382;DHT22;56560;50.692;12.844;2023-05-07T08:38:49;16.00;56.70
69382;DHT22;56560;50.692;12.844;2023-05-07T08:41:15;16.40;56.10
69382;DHT22;56560;50.692;12.844;2023-05-07T08:43:41;16.80;54.70
69382;DHT22;56560;50.692;12.844;2023-05-07T08:46:11;16.60;54.90
69382;DHT22;56560;50.692;12.844;2023-05-07T08:48:37;16.40;55.70
69382;DHT22;56560;50.692;12.844;2023-05-07T08:51:03;16.30;56.00
69382;DHT22;56560;50.692;12.844;2023-05-07T08:53:28;16.40;55.10
69382;DHT22;56560;50.692;12.844;2023-05-07T08:55:55;16.10;56.40
69382;DHT22;56560;50.692;12.844;2023-05-07T08:58:20;16.10;56.80
69382;DHT22;56560;50.692;12.844;2023-05-07T09:00:46;16.30;56.20
69382;DHT22;56560;50.692;12.844;2023-05-07T09:03:15;16.50;56.00
69382;DHT22;56560;50.692;12.844;2023-05-07T09:05:41;16.40;54.90
69382;DHT22;56560;50.692;12.844;2023-05-07T09:08:07;16.30;55.80
69382;DHT22;56560;50.692;12.844;2023-05-07T09:10:34;16.50;54.70
69382;DHT22;56560;50.692;12.844;2023-05-07T09:12:59;16.80;54.70
69382;DHT22;56560;50.692;12.844;2023-05-07T09:15:26;17.00;54.60
69382;DHT22;56560;50.692;12.844;2023-05-07T09:17:53;17.30;52.80
69382;DHT22;56560;50.692;12.844;2023-05-07T09:20:18;17.20;54.50
69382;DHT22;56560;50.692;12.844;2023-05-07T09:22:44;17.50;53.20
69382;DHT22;56560;50.692;12.844;2023-05-07T09:25:10;17.60;53.10
69382;DHT22;56560;50.692;12.844;2023-05-07T09:27:36;17.60;52.60
69382;DHT22;56560;50.692;12.844;2023-05-07T09:30:06;17.70;52.80
69382;DHT22;56560;50.692;12.844;2023-05-07T09:32:36;17.60;52.00
69382;DHT22;56560;50.692;12.844;2023-05-07T09:35:14;17.60;52.30
69382;DHT22;56560;50.692;12.844;2023-05-07T09:38:00;17.40;53.50
69382;DHT22;56560;50.692;12.844;2023-05-07T09:40:30;17.40;52.80
69382;DHT22;56560;50.692;12.844;2023-05-07T09:43:10;17.00;53.80
69382;DHT22;56560;50.692;12.844;2023-05-07T09:45:37;16.90;54.40
69382;DHT22;56560;50.692;12.844;2023-05-07T09:48:05;16.80;54.50
69382;DHT22;56560;50.692;12.844;2023-05-07T09:50:48;16.90;54.00
69382;DHT22;56560;50.692;12.844;2023-05-07T09:53:14;16.90;54.30
69382;DHT22;56560;50.692;12.844;2023-05-07T09:55:41;16.60;55.00
69382;DHT22;56560;50.692;12.844;2023-05-07T09:58:11;16.70;55.30
69382;DHT22;56560;50.692;12.844;2023-05-07T10:00:39;16.90;55.50
69382;DHT22;56560;50.692;12.844;2023-05-07T10:03:07;17.00;54.30
69382;DHT22;56560;50.692;12.844;2023-05-07T10:05:34;17.00;54.70
69382;DHT22;56560;50.692;12.844;2023-05-07T10:08:00;17.10;54.50
69382;DHT22;56560;50.692;12.844;2023-05-07T10:10:27;17.30;54.60
69382;DHT22;56560;50.692;12.844;2023-05-07T10:12:54;17.40;52.80
69382;DHT22;56560;50.692;12.844;2023-05-07T10:15:22;17.00;53.10
69382;DHT22;56560;50.692;12.844;2023-05-07T10:17:51;16.90;53.60
69382;DHT22;56560;50.692;12.844;2023-05-07T10:20:18;17.00;53.70
69382;DHT22;56560;50.692;12.844;2023-05-07T10:22:46;16.90;54.50
69382;DHT22;56560;50.692;12.844;2023-05-07T10:25:16;17.00;54.00
69382;DHT22;56560;50.692;12.844;2023-05-07T10:27:44;17.30;53.70
69382;DHT22;56560;50.692;12.844;2023-05-07T10:30:26;17.40;53.40
69382;DHT22;56560;50.692;12.844;2023-05-07T10:32:59;17.50;53.70
69382;DHT22;56560;50.692;12.844;2023-05-07T10:35:32;17.60;53.70
69382;DHT22;56560;50.692;12.844;2023-05-07T10:38:01;18.00;52.20
69382;DHT22;56560;50.692;12.844;2023-05-07T10:40:27;18.00;53.10
69382;DHT22;56560;50.692;12.844;2023-05-07T10:42:54;18.20;52.00
69382;DHT22;56560;50.692;12.844;2023-05-07T10:45:21;18.30;52.00
69382;DHT22;56560;50.692;12.844;2023-05-07T10:48:10;18.20;52.40
69382;DHT22;56560;50.692;12.844;2023-05-07T10:50:38;18.40;51.80
69382;DHT22;56560;50.692;12.844;2023-05-07T10:58:25;18.50;51.00
69382;DHT22;56560;50.692;12.844;2023-05-07T11:00:56;18.20;51.90
69382;DHT22;56560;50.692;12.844;2023-05-07T11:03:22;18.30;51.60
69382;DHT22;56560;50.692;12.844;2023-05-07T11:06:14;18.50;52.30
69382;DHT22;56560;50.692;12.844;2023-05-07T11:08:56;19.00;50.80
69382;DHT22;56560;50.692;12.844;2023-05-07T11:11:47;19.10;49.60
69382;DHT22;56560;50.692;12.844;2023-05-07T11:14:14;18.90;50.60
69382;DHT22;56560;50.692;12.844;2023-05-07T11:17:03;19.00;51.50
69382;DHT22;56560;50.692;12.844;2023-05-07T11:19:54;19.00;50.80
69382;DHT22;56560;50.692;12.844;2023-05-07T11:25:03;19.90;49.70
69382;DHT22;56560;50.692;12.844;2023-05-07T11:27:29;20.20;48.30
69382;DHT22;56560;50.692;12.844;2023-05-07T11:29:55;20.10;48.10
69382;DHT22;56560;50.692;12.844;2023-05-07T11:32:31;20.20;48.20
69382;DHT22;56560;50.692;12.844;2023-05-07T11:34:59;20.60;47.70
69382;DHT22;56560;50.692;12.844;2023-05-07T11:37:26;20.60;47.30
69382;DHT22;56560;50.692;12.844;2023-05-07T11:40:13;21.00;46.20
69382;DHT22;56560;50.692;12.844;2023-05-07T11:42:40;21.00;46.50
69382;DHT22;56560;50.692;12.844;2023-05-07T11:45:08;21.60;45.20
69382;DHT22;56560;50.692;12.844;2023-05-07T11:47:34;21.60;45.10
69382;DHT22;56560;50.692;12.844;2023-05-07T11:50:05;22.10;44.50
69382;DHT22;56560;50.692;12.844;2023-05-07T11:52:31;23.00;42.80
69382;DHT22;56560;50.692;12.844;2023-05-07T11:54:58;23.50;43.00
69382;DHT22;56560;50.692;12.844;2023-05-07T11:57:25;24.00;41.50
69382;DHT22;56560;50.692;12.844;2023-05-07T11:59:58;23.50;42.30
69382;DHT22;56560;50.692;12.844;2023-05-07T12:02:25;23.90;41.70
69382;DHT22;56560;50.692;12.844;2023-05-07T12:04:52;23.90;41.30
69382;DHT22;56560;50.692;12.844;2023-05-07T12:07:18;24.20;40.50
69382;DHT22;56560;50.692;12.844;2023-05-07T12:09:47;24.30;40.30
69382;DHT22;56560;50.692;12.844;2023-05-07T12:12:13;25.00;39.60
69382;DHT22;56560;50.692;12.844;2023-05-07T12:14:44;25.40;39.20
69382;DHT22;56560;50.692;12.844;2023-05-07T12:17:11;25.50;38.40
69382;DHT22;56560;50.692;12.844;2023-05-07T12:19:38;25.60;38.40
69382;DHT22;56560;50.692;12.844;2023-05-07T12:22:04;24.30;40.30
69382;DHT22;56560;50.692;12.844;2023-05-07T12:24:45;23.40;41.70
69382;DHT22;56560;50.692;12.844;2023-05-07T12:27:11;22.60;42.90
69382;DHT22;56560;50.692;12.844;2023-05-07T12:29:37;22.30;43.60
69382;DHT22;56560;50.692;12.844;2023-05-07T12:32:06;22.30;44.00
69382;DHT22;56560;50.692;12.844;2023-05-07T12:34:32;22.20;44.10
69382;DHT22;56560;50.692;12.844;2023-05-07T12:37:01;22.20;43.80
69382;DHT22;56560;50.692;12.844;2023-05-07T12:39:27;22.00;44.30
69382;DHT22;56560;50.692;12.844;2023-05-07T12:41:57;22.40;44.10
69382;DHT22;56560;50.692;12.844;2023-05-07T12:44:31;22.60;43.40
69382;DHT22;56560;50.692;12.844;2023-05-07T12:46:57;23.10;42.40
69382;DHT22;56560;50.692;12.844;2023-05-07T12:49:23;23.10;42.60
69382;DHT22;56560;50.692;12.844;2023-05-07T12:51:49;23.10;42.20
69382;DHT22;56560;50.692;12.844;2023-05-07T12:54:34;22.90;42.60
69382;DHT22;56560;50.692;12.844;2023-05-07T12:57:06;22.00;43.90
69382;DHT22;56560;50.692;12.844;2023-05-07T12:59:37;21.90;44.10
69382;DHT22;56560;50.692;12.844;2023-05-07T13:02:02;21.50;44.80
69382;DHT22;56560;50.692;12.844;2023-05-07T13:04:28;21.50;45.20
69382;DHT22;56560;50.692;12.844;2023-05-07T13:06:54;21.70;44.60
69382;DHT22;56560;50.692;12.844;2023-05-07T13:09:20;21.50;45.00
69382;DHT22;56560;50.692;12.844;2023-05-07T13:11:45;21.30;45.40
69382;DHT22;56560;50.692;12.844;2023-05-07T13:14:11;21.60;44.50
69382;DHT22;56560;50.692;12.844;2023-05-07T13:16:37;21.40;44.90
69382;DHT22;56560;50.692;12.844;2023-05-07T13:19:02;20.90;45.70
69382;DHT22;56560;50.692;12.844;2023-05-07T13:21:29;20.90;46.20
69382;DHT22;56560;50.692;12.844;2023-05-07T13:23:55;20.80;46.30
69382;DHT22;56560;50.692;12.844;2023-05-07T13:26:21;20.70;46.90
69382;DHT22;56560;50.692;12.844;2023-05-07T13:28:47;21.60;45.20
69382;DHT22;56560;50.692;12.844;2023-05-07T13:31:14;22.00;44.00
69382;DHT22;56560;50.692;12.844;2023-05-07T13:33:39;21.70;45.60
69382;DHT22;56560;50.692;12.844;2023-05-07T13:36:05;21.70;45.30
69382;DHT22;56560;50.692;12.844;2023-05-07T13:38:31;21.80;44.70
69382;DHT22;56560;50.692;12.844;2023-05-07T13:40:56;22.00;44.50
69382;DHT22;56560;50.692;12.844;2023-05-07T13:43:22;22.20;44.00
69382;DHT22;56560;50.692;12.844;2023-05-07T13:45:48;22.20;43.50
69382;DHT22;56560;50.692;12.844;2023-05-07T13:48:14;22.20;43.70
69382;DHT22;56560;50.692;12.844;2023-05-07T13:50:39;22.10;43.80
69382;DHT22;56560;50.692;12.844;2023-05-07T13:53:05;22.00;44.20
69382;DHT22;56560;50.692;12.844;2023-05-07T13:55:30;22.10;44.30
69382;DHT22;56560;50.692;12.844;2023-05-07T13:58:01;22.10;44.20
69382;DHT22;56560;50.692;12.844;2023-05-07T14:00:27;22.10;43.90
69382;DHT22;56560;50.692;12.844;2023-05-07T14:02:54;21.90;44.60
69382;DHT22;56560;50.692;12.844;2023-05-07T14:05:20;22.00;44.20
69382;DHT22;56560;50.692;12.844;2023-05-07T14:07:46;22.30;44.00
69382;DHT22;56560;50.692;12.844;2023-05-07T14:10:12;23.00;43.30
69382;DHT22;56560;50.692;12.844;2023-05-07T14:12:38;23.40;42.20
69382;DHT22;56560;50.692;12.844;2023-05-07T14:15:04;23.70;41.90
69382;DHT22;56560;50.692;12.844;2023-05-07T14:17:30;24.40;40.80
69382;DHT22;56560;50.692;12.844;2023-05-07T14:19:55;24.60;39.90
69382;DHT22;56560;50.692;12.844;2023-05-07T14:22:22;24.50;39.60
69382;DHT22;56560;50.692;12.844;2023-05-07T14:24:48;24.00;40.80
69382;DHT22;56560;50.692;12.844;2023-05-07T14:27:14;24.00;40.70
69382;DHT22;56560;50.692;12.844;2023-05-07T14:29:40;23.90;40.50
69382;DHT22;56560;50.692;12.844;2023-05-07T14:32:06;24.40;40.30
69382;DHT22;56560;50.692;12.844;2023-05-07T14:34:32;25.20;39.20
69382;DHT22;56560;50.692;12.844;2023-05-07T14:36:58;25.40;38.70
69382;DHT22;56560;50.692;12.844;2023-05-07T14:39:24;25.90;38.30
69382;DHT22;56560;50.692;12.844;2023-05-07T14:41:50;26.20;37.70
69382;DHT22;56560;50.692;12.844;2023-05-07T14:44:16;26.60;37.40
69382;DHT22;56560;50.692;12.844;2023-05-07T14:46:41;27.10;37.20
69382;DHT22;56560;50.692;12.844;2023-05-07T14:49:07;28.00;36.20
69382;DHT22;56560;50.692;12.844;2023-05-07T14:51:45;28.30;35.10
69382;DHT22;56560;50.692;12.844;2023-05-07T14:54:12;28.10;35.40
69382;DHT22;56560;50.692;12.844;2023-05-07T14:56:38;27.70;35.50
69382;DHT22;56560;50.692;12.844;2023-05-07T14:59:03;27.20;36.10
69382;DHT22;56560;50.692;12.844;2023-05-07T15:01:29;26.50;37.00
69382;DHT22;56560;50.692;12.844;2023-05-07T15:03:55;26.40;37.30
69382;DHT22;56560;50.692;12.844;2023-05-07T15:06:21;26.90;36.90
69382;DHT22;56560;50.692;12.844;2023-05-07T15:08:47;27.10;36.30
69382;DHT22;56560;50.692;12.844;2023-05-07T15:11:14;27.60;36.10
69382;DHT22;56560;50.692;12.844;2023-05-07T15:13:41;28.20;34.70
69382;DHT22;56560;50.692;12.844;2023-05-07T15:16:06;28.00;35.00
69382;DHT22;56560;50.692;12.844;2023-05-07T15:18:32;27.60;35.80
69382;DHT22;56560;50.692;12.844;2023-05-07T15:20:58;27.80;35.50
69382;DHT22;56560;50.692;12.844;2023-05-07T15:23:23;27.70;35.60
69382;DHT22;56560;50.692;12.844;2023-05-07T15:25:49;27.90;35.20
69382;DHT22;56560;50.692;12.844;2023-05-07T15:28:15;27.90;35.50
69382;DHT22;56560;50.692;12.844;2023-05-07T15:30:41;28.20;35.10